Mullins, South Carolina
Current Conditions -  °F | °C
As of 5:15 PM on Monday 22 Dec 2014 (Local Time) from KMAO Reporting Station
Overcast Overcast  
Wind Chill: 39°   Ceiling: 400
Heat Index: 43°   Visibility: 7mi
Dew Point: 43°   Wind: 6mph
Humidity: 100%   Direction: 360°N
Pressure: 30.03"   Gusts: NA
Location:  34.2°N, 79.25°W
Report Text: KMAO 222215Z AUTO 36005KT 7SM OVC004 06/06 A3003 RMK AO2
Loading
Personal Weather Stations






























Interactive Weather Map New forecast layout! Learn more

10-Day Weather Forecast

Advertisements
Track Severe Weather on mobile